createdAt,value
2017-06-26T00:02:49.008Z,0
2017-06-26T00:05:13.336Z,0
2017-06-26T00:07:39.681Z,0
2017-06-26T00:10:03.954Z,0
2017-06-26T00:12:28.255Z,0
2017-06-26T00:14:52.527Z,0
2017-06-26T00:17:08.371Z,0
2017-06-26T00:19:32.707Z,0
2017-06-26T00:21:56.990Z,0
2017-06-26T00:24:14.907Z,0
2017-06-26T00:26:39.216Z,0
2017-06-26T00:29:03.496Z,0
2017-06-26T00:31:27.786Z,0
2017-06-26T00:33:52.075Z,0
2017-06-26T00:36:16.364Z,0
2017-06-26T00:38:40.652Z,0
2017-06-26T00:41:05.966Z,0
2017-06-26T00:43:30.249Z,0
2017-06-26T00:45:55.563Z,0
2017-06-26T00:48:20.866Z,0
2017-06-26T00:50:45.160Z,0
2017-06-26T00:53:09.441Z,0
2017-06-26T00:55:34.770Z,0
2017-06-26T00:57:59.043Z,0
2017-06-26T01:00:23.326Z,0
2017-06-26T01:02:47.610Z,0
2017-06-26T01:05:11.893Z,0
2017-06-26T01:07:36.198Z,0
2017-06-26T01:09:52.016Z,0
2017-06-26T01:12:08.881Z,0
2017-06-26T01:14:34.199Z,0
2017-06-26T01:18:21.056Z,0
2017-06-26T01:20:46.321Z,0
2017-06-26T01:23:10.627Z,0
2017-06-26T01:25:20.713Z,0
2017-06-26T01:27:44.950Z,0
2017-06-26T01:30:10.151Z,0
2017-06-26T01:32:25.949Z,0
2017-06-26T01:34:41.677Z,0
2017-06-26T01:36:57.461Z,0
2017-06-26T01:39:21.712Z,0
2017-06-26T01:41:47.006Z,0
2017-06-26T01:44:11.286Z,0
2017-06-26T01:46:27.083Z,0
2017-06-26T01:48:51.284Z,0
2017-06-26T01:51:07.116Z,0
2017-06-26T01:53:33.392Z,0
2017-06-26T01:55:49.182Z,0
2017-06-26T01:58:04.918Z,0
2017-06-26T02:00:29.133Z,0
2017-06-26T02:02:53.345Z,0
2017-06-26T02:05:17.623Z,0
2017-06-26T02:07:42.824Z,0
2017-06-26T02:10:07.016Z,0
2017-06-26T02:12:31.296Z,0
2017-06-26T02:14:47.061Z,0
2017-06-26T02:17:11.262Z,0
2017-06-26T02:19:35.459Z,0
2017-06-26T02:21:59.643Z,0
2017-06-26T02:24:16.460Z,0
2017-06-26T02:26:42.867Z,0
2017-06-26T02:31:08.864Z,0
2017-06-26T02:33:19.280Z,0
2017-06-26T02:35:43.580Z,0
2017-06-26T02:38:07.760Z,0
2017-06-26T02:40:32.976Z,0
2017-06-26T02:42:57.168Z,0
2017-06-26T02:45:04.462Z,0
2017-06-26T02:47:29.656Z,4
2017-06-26T02:49:54.859Z,0
2017-06-26T02:52:21.094Z,0
2017-06-26T02:54:45.283Z,4
2017-06-26T02:57:09.456Z,4
2017-06-26T02:59:33.645Z,8
2017-06-26T03:01:57.828Z,8
2017-06-26T03:04:22.011Z,12
2017-06-26T03:06:46.194Z,16
2017-06-26T03:09:10.380Z,20
2017-06-26T03:11:34.567Z,28
2017-06-26T03:13:58.844Z,40
2017-06-26T03:16:23.038Z,48
2017-06-26T03:18:54.188Z,56
2017-06-26T03:21:27.182Z,68
2017-06-26T03:23:43.947Z,80
2017-06-26T03:26:08.167Z,96
2017-06-26T03:28:33.382Z,108
2017-06-26T03:30:49.106Z,124
2017-06-26T03:33:13.350Z,144
2017-06-26T03:35:38.569Z,168
2017-06-26T03:38:02.852Z,200
2017-06-26T03:40:18.598Z,232
2017-06-26T03:42:20.609Z,256
2017-06-26T03:46:21.096Z,308
2017-06-26T03:48:36.823Z,340
2017-06-26T03:51:03.072Z,372
2017-06-26T03:53:34.007Z,408
2017-06-26T03:55:58.294Z,444
2017-06-26T03:58:22.582Z,476
2017-06-26T04:00:38.387Z,516
2017-06-26T04:03:02.655Z,560
2017-06-26T04:05:18.446Z,604
2017-06-26T04:07:43.659Z,640
2017-06-26T04:10:07.944Z,680
2017-06-26T04:14:25.711Z,776
2017-06-26T04:16:49.985Z,828
2017-06-26T04:19:15.287Z,888
2017-06-26T04:21:31.085Z,996
2017-06-26T04:23:33.273Z,1812
2017-06-26T04:25:57.664Z,2152
2017-06-26T04:28:22.201Z,2288
2017-06-26T04:30:46.831Z,2304
2017-06-26T04:33:11.498Z,2548
2017-06-26T04:35:37.419Z,2660
2017-06-26T04:38:10.657Z,2796
2017-06-26T04:40:27.403Z,2980
2017-06-26T04:42:44.330Z,3104
2017-06-26T04:45:11.830Z,3288
2017-06-26T04:47:37.479Z,3428
2017-06-26T04:49:54.690Z,3632
2017-06-26T04:54:02.118Z,3824
2017-06-26T04:58:04.432Z,4016
2017-06-26T05:00:21.989Z,4120
2017-06-26T05:02:49.204Z,4280
2017-06-26T05:06:51.799Z,4628
2017-06-26T05:09:09.698Z,4868
2017-06-26T05:11:38.187Z,5036
2017-06-26T05:15:41.042Z,5292
2017-06-26T05:17:59.073Z,5304
2017-06-26T05:20:18.157Z,5624
2017-06-26T05:22:36.306Z,5784
2017-06-26T05:25:04.065Z,5992
2017-06-26T05:27:32.896Z,6132
2017-06-26T05:33:38.673Z,7056
2017-06-26T05:36:05.757Z,7440
2017-06-26T05:38:34.766Z,7928
2017-06-26T05:42:38.222Z,8560
2017-06-26T05:45:07.391Z,8904
2017-06-26T05:49:12.036Z,9396
2017-06-26T05:53:07.085Z,9652
2017-06-26T05:55:41.428Z,9768
2017-06-26T05:58:01.189Z,10116
2017-06-26T06:00:28.562Z,10488
2017-06-26T06:02:55.931Z,10600
2017-06-26T06:04:58.304Z,11288
2017-06-26T06:07:17.074Z,11420
2017-06-26T06:09:50.980Z,11984
2017-06-26T06:12:19.241Z,12172
2017-06-26T06:14:46.477Z,13804
2017-06-26T06:17:14.756Z,14720
2017-06-26T06:19:50.329Z,16416
2017-06-26T06:22:17.673Z,18976
2017-06-26T06:24:43.167Z,21248
2017-06-26T06:27:10.425Z,26240
2017-06-26T06:29:29.104Z,28896
2017-06-26T06:31:56.494Z,31200
2017-06-26T06:34:25.021Z,32992
2017-06-26T06:36:53.628Z,31968
2017-06-26T06:40:58.837Z,11988
2017-06-26T06:43:27.583Z,10064
2017-06-26T06:46:02.931Z,10080
2017-06-26T06:48:47.376Z,10412
2017-06-26T06:51:15.924Z,10512
2017-06-26T06:53:49.313Z,10416
2017-06-26T06:56:23.299Z,10228
2017-06-26T06:58:43.856Z,10048
2017-06-26T07:01:10.857Z,10000
2017-06-26T07:03:45.666Z,10280
2017-06-26T07:06:12.382Z,10108
2017-06-26T07:08:39.016Z,9684
2017-06-26T07:11:07.574Z,9680
2017-06-26T07:15:10.316Z,11188
2017-06-26T07:17:36.684Z,12336
2017-06-26T07:20:03.113Z,14952
2017-06-26T07:22:21.819Z,16928
2017-06-26T07:24:55.048Z,16576
2017-06-26T07:27:29.058Z,18688
2017-06-26T07:29:57.204Z,20544
2017-06-26T07:32:14.780Z,21312
2017-06-26T07:34:40.901Z,21152
2017-06-26T07:37:07.104Z,18432
2017-06-26T07:39:33.348Z,15076
2017-06-26T07:42:00.600Z,14056
2017-06-26T07:44:26.839Z,13176
2017-06-26T07:46:37.912Z,12388
2017-06-26T07:49:04.149Z,11832
2017-06-26T07:51:31.412Z,11464
2017-06-26T07:53:58.536Z,11236
2017-06-26T07:56:14.611Z,11020
2017-06-26T07:58:40.903Z,10772
2017-06-26T08:01:08.263Z,10680
2017-06-26T08:03:35.641Z,10428
2017-06-26T08:05:54.510Z,10300
2017-06-26T08:08:19.200Z,10252
2017-06-26T08:10:37.070Z,10144
2017-06-26T08:13:03.480Z,10112
2017-06-26T08:15:29.925Z,10000
2017-06-26T08:17:57.385Z,9980
2017-06-26T08:20:25.871Z,9896
2017-06-26T08:22:54.355Z,9864
2017-06-26T08:25:21.842Z,9760
2017-06-26T08:27:48.244Z,9764
2017-06-26T08:30:14.701Z,9680
2017-06-26T08:32:41.133Z,9864
2017-06-26T08:34:59.049Z,9936
2017-06-26T08:37:26.521Z,10016
2017-06-26T08:39:44.376Z,10276
2017-06-26T08:42:10.873Z,10232
2017-06-26T08:44:37.365Z,10136
2017-06-26T08:47:03.911Z,10132
2017-06-26T08:49:30.453Z,10248
2017-06-26T08:51:56.939Z,10268
2017-06-26T08:54:14.914Z,10088
2017-06-26T08:56:41.448Z,9860
2017-06-26T08:59:09.928Z,9708
2017-06-26T09:01:37.510Z,9620
2017-06-26T09:03:48.690Z,9536
2017-06-26T09:06:15.229Z,9304
2017-06-26T09:08:33.134Z,9280
2017-06-26T09:11:01.674Z,9156
2017-06-26T09:13:44.872Z,9032
2017-06-26T09:16:12.334Z,8776
2017-06-26T09:18:30.176Z,8696
2017-06-26T09:20:56.590Z,8556
2017-06-26T09:23:25.065Z,8424
2017-06-26T09:25:42.928Z,8328
2017-06-26T09:28:09.347Z,8160
2017-06-26T09:30:36.791Z,8016
2017-06-26T09:33:04.269Z,7880
2017-06-26T09:35:23.132Z,7716
2017-06-26T09:37:34.262Z,7784
2017-06-26T09:40:15.480Z,7752
2017-06-26T09:42:43.850Z,7500
2017-06-26T09:45:11.207Z,7460
2017-06-26T09:47:37.526Z,7312
2017-06-26T09:50:05.811Z,7520
2017-06-26T09:52:32.029Z,7440
2017-06-26T09:56:34.620Z,7292
2017-06-26T09:58:58.795Z,7132
2017-06-26T10:01:31.805Z,7264
2017-06-26T10:03:59.970Z,6492
2017-06-26T10:06:26.090Z,4112
2017-06-26T10:08:35.049Z,6888
2017-06-26T10:10:54.613Z,6572
2017-06-26T10:13:22.625Z,6076
2017-06-26T10:16:03.293Z,5908
2017-06-26T10:18:29.192Z,4596
2017-06-26T10:20:57.082Z,5968
2017-06-26T10:23:23.911Z,5028
2017-06-26T10:25:56.291Z,5380
2017-06-26T10:28:23.114Z,5224
2017-06-26T10:30:48.949Z,5288
2017-06-26T10:33:06.219Z,5396
2017-06-26T10:35:23.335Z,5064
2017-06-26T10:37:50.014Z,4908
2017-06-26T10:40:07.218Z,4892
2017-06-26T10:42:32.851Z,4888
2017-06-26T10:45:00.550Z,4844
2017-06-26T10:47:10.110Z,4668
2017-06-26T10:49:25.253Z,4428
2017-06-26T10:51:50.928Z,4284
2017-06-26T10:54:17.561Z,4240
2017-06-26T10:56:34.570Z,4040
2017-06-26T10:59:00.090Z,3916
2017-06-26T11:01:17.014Z,3768
2017-06-26T11:03:44.561Z,3636
2017-06-26T11:06:08.224Z,3524
2017-06-26T11:08:33.736Z,3416
2017-06-26T11:10:50.739Z,3316
2017-06-26T11:13:07.651Z,3228
2017-06-26T11:15:34.108Z,3116
2017-06-26T11:17:59.618Z,3008
2017-06-26T11:20:25.297Z,2928
2017-06-26T11:22:50.656Z,2864
2017-06-26T11:25:16.162Z,2768
2017-06-26T11:27:43.622Z,2700
2017-06-26T11:30:10.051Z,2628
2017-06-26T11:32:35.457Z,2568
2017-06-26T11:35:00.870Z,2520
2017-06-26T11:37:26.294Z,2472
2017-06-26T11:39:44.195Z,2420
2017-06-26T11:42:24.273Z,2396
2017-06-26T11:46:17.393Z,2364
2017-06-26T11:48:44.810Z,2308
2017-06-26T11:51:11.120Z,2272
2017-06-26T11:53:36.455Z,2264
2017-06-26T11:56:03.803Z,2252
2017-06-26T11:58:29.110Z,2240
2017-06-26T12:00:54.430Z,2220
2017-06-26T12:04:55.481Z,2172
2017-06-26T12:08:48.009Z,2148
2017-06-26T12:13:03.906Z,2116
2017-06-26T12:15:31.201Z,2080
2017-06-26T12:18:04.318Z,2060
2017-06-26T12:20:30.635Z,2032
2017-06-26T12:24:32.489Z,2032
2017-06-26T12:26:57.824Z,2052
2017-06-26T12:29:08.181Z,2060
2017-06-26T12:31:33.487Z,2060
2017-06-26T12:33:58.795Z,2052
2017-06-26T12:36:25.141Z,2048
2017-06-26T12:38:58.019Z,2036
2017-06-26T12:41:23.357Z,2024
2017-06-26T12:43:55.008Z,2000
2017-06-26T12:46:20.430Z,1968
2017-06-26T12:48:45.844Z,1936
2017-06-26T12:51:27.075Z,1912
2017-06-26T12:55:19.698Z,1884
2017-06-26T12:57:30.472Z,1864
2017-06-26T13:00:02.305Z,1848
2017-06-26T13:02:34.294Z,1836
2017-06-26T13:05:00.711Z,1824
2017-06-26T13:07:17.613Z,1808
2017-06-26T13:09:42.938Z,1796
2017-06-26T13:12:09.264Z,1784
2017-06-26T13:14:27.108Z,1772
2017-06-26T13:16:52.425Z,1760
2017-06-26T13:19:17.718Z,1752
2017-06-26T13:21:43.037Z,1740
2017-06-26T13:24:01.891Z,1736
2017-06-26T13:26:12.679Z,1728
2017-06-26T13:28:38.995Z,1712
2017-06-26T13:32:40.558Z,1704
2017-06-26T13:36:42.066Z,1688
2017-06-26T13:40:43.612Z,1696
2017-06-26T13:44:45.132Z,1684
2017-06-26T13:48:46.686Z,1684
2017-06-26T13:52:39.687Z,1680
2017-06-26T13:56:41.266Z,1680
2017-06-26T13:58:58.085Z,1680
2017-06-26T14:01:16.831Z,1684
2017-06-26T14:05:18.364Z,1684
2017-06-26T14:09:19.893Z,1664
2017-06-26T14:11:30.687Z,1700
2017-06-26T14:14:03.453Z,1700
2017-06-26T14:16:44.491Z,1700
2017-06-26T14:19:02.269Z,1692
2017-06-26T14:21:34.426Z,1680
2017-06-26T14:23:53.283Z,1684
2017-06-26T14:26:20.647Z,1680
2017-06-26T14:29:00.511Z,1676
2017-06-26T14:32:53.554Z,1668
2017-06-26T14:35:18.887Z,1672
2017-06-26T14:39:20.503Z,1672
2017-06-26T14:41:37.370Z,1672
2017-06-26T14:44:18.266Z,1668
2017-06-26T14:46:45.613Z,1684
2017-06-26T14:49:18.746Z,1688
2017-06-26T14:51:50.767Z,1696
2017-06-26T14:54:16.086Z,1696
2017-06-26T14:56:32.907Z,1700
2017-06-26T14:58:43.735Z,1676
2017-06-26T15:01:15.531Z,1692
2017-06-26T15:03:40.842Z,1696
2017-06-26T15:05:57.664Z,1684
2017-06-26T15:08:23.986Z,1696
2017-06-26T15:10:50.307Z,1688
2017-06-26T15:13:16.648Z,1672
2017-06-26T15:15:41.957Z,1680
2017-06-26T15:18:07.272Z,1696
2017-06-26T15:20:24.075Z,1692
2017-06-26T15:22:49.385Z,1708
2017-06-26T15:25:06.204Z,1720
2017-06-26T15:27:31.534Z,1724
2017-06-26T15:29:48.329Z,1756
2017-06-26T15:32:13.681Z,1788
2017-06-26T15:39:27.876Z,1892
2017-06-26T15:43:29.424Z,1968
2017-06-26T15:47:30.909Z,2008
2017-06-26T15:51:32.422Z,2104
2017-06-26T15:53:58.665Z,2172
2017-06-26T15:57:51.617Z,2220
2017-06-26T16:00:17.817Z,2256
2017-06-26T16:06:21.454Z,2264
2017-06-26T16:10:22.953Z,2252
2017-06-26T16:14:24.427Z,2328
2017-06-26T16:17:04.254Z,2324
2017-06-26T16:20:57.259Z,2212
2017-06-26T16:23:31.010Z,2224
2017-06-26T16:29:08.738Z,2260
2017-06-26T16:31:40.472Z,2160
2017-06-26T16:35:41.943Z,2124
2017-06-26T16:39:43.464Z,2132
2017-06-26T16:43:45.060Z,2116
2017-06-26T16:47:46.533Z,2176
2017-06-26T16:53:24.307Z,2164
2017-06-26T16:59:55.870Z,2068
2017-06-26T17:02:13.646Z,1972
2017-06-26T17:06:15.154Z,1892
2017-06-26T17:10:16.666Z,1804
2017-06-26T17:14:19.157Z,1656
2017-06-26T17:18:22.780Z,1640
2017-06-26T17:24:09.383Z,1600
2017-06-26T17:26:51.131Z,1588
2017-06-26T17:29:31.146Z,1596
2017-06-26T17:33:32.645Z,1580
2017-06-26T17:37:34.108Z,1520
2017-06-26T17:39:59.344Z,1496
2017-06-26T17:44:27.719Z,1396
2017-06-26T17:46:52.891Z,1360
2017-06-26T17:49:17.905Z,1328
2017-06-26T17:51:43.075Z,1264
2017-06-26T17:54:09.307Z,1188
2017-06-26T17:58:36.698Z,1048
2017-06-26T18:01:01.875Z,992
2017-06-26T18:03:27.095Z,904
2017-06-26T18:05:52.227Z,844
2017-06-26T18:08:09.965Z,840
2017-06-26T18:10:35.030Z,832
2017-06-26T18:13:00.130Z,812
2017-06-26T18:15:26.272Z,784
2017-06-26T18:17:51.408Z,736
2017-06-26T18:20:17.522Z,708
2017-06-26T18:22:42.587Z,648
2017-06-26T18:25:07.743Z,608
2017-06-26T18:27:32.876Z,540
2017-06-26T18:29:58.012Z,440
2017-06-26T18:32:23.229Z,368
2017-06-26T18:34:48.080Z,320
2017-06-26T18:37:15.177Z,260
2017-06-26T18:39:40.258Z,240
2017-06-26T18:42:05.392Z,212
2017-06-26T18:44:31.420Z,188
2017-06-26T18:46:58.965Z,172
2017-06-26T18:49:25.119Z,160
2017-06-26T18:51:48.513Z,144
2017-06-26T18:54:13.885Z,132
2017-06-26T18:56:45.658Z,120
2017-06-26T18:59:18.420Z,108
2017-06-26T19:01:43.567Z,100
2017-06-26T19:04:09.627Z,92
2017-06-26T19:06:41.469Z,80
2017-06-26T19:09:06.620Z,72
2017-06-26T19:16:46.616Z,48
2017-06-26T19:19:11.642Z,44
2017-06-26T19:23:29.228Z,40
2017-06-26T19:25:54.164Z,40
2017-06-26T19:28:19.123Z,36
2017-06-26T19:34:22.452Z,20
2017-06-26T19:36:32.656Z,20
2017-06-26T19:38:58.693Z,16
2017-06-26T19:41:16.214Z,12
2017-06-26T19:43:41.103Z,8
2017-06-26T19:46:06.015Z,4
2017-06-26T19:48:30.910Z,4
2017-06-26T19:50:56.830Z,4
2017-06-26T19:53:28.476Z,0
2017-06-26T19:55:54.497Z,4
2017-06-26T19:58:19.325Z,0
2017-06-26T20:00:44.296Z,0
2017-06-26T20:04:45.296Z,0
2017-06-26T20:07:17.124Z,0
2017-06-26T20:09:48.596Z,0
2017-06-26T20:12:13.440Z,0
2017-06-26T20:14:40.334Z,0
2017-06-26T20:17:05.123Z,0
2017-06-26T20:19:29.915Z,0
2017-06-26T20:23:30.919Z,0
2017-06-26T20:25:41.972Z,0
2017-06-26T20:29:43.177Z,0
2017-06-26T20:33:44.265Z,0
2017-06-26T20:36:09.062Z,0
2017-06-26T20:38:33.795Z,0
2017-06-26T20:40:58.656Z,0
2017-06-26T20:44:59.884Z,0
2017-06-26T20:49:00.874Z,0
2017-06-26T20:51:32.237Z,0
2017-06-26T20:53:49.553Z,0
2017-06-26T20:56:00.174Z,0
2017-06-26T20:58:24.889Z,0
2017-06-26T21:00:49.613Z,0
2017-06-26T21:03:14.276Z,0
2017-06-26T21:05:40.248Z,0
2017-06-26T21:08:05.096Z,0
2017-06-26T21:10:29.739Z,0
2017-06-26T21:12:54.518Z,0
2017-06-26T21:15:19.216Z,0
2017-06-26T21:17:27.046Z,0
2017-06-26T21:19:51.706Z,0
2017-06-26T21:22:16.351Z,0
2017-06-26T21:24:26.988Z,0
2017-06-26T21:26:51.798Z,0
2017-06-26T21:29:16.464Z,0
2017-06-26T21:31:41.170Z,0
2017-06-26T21:34:05.872Z,0
2017-06-26T21:36:30.562Z,0
2017-06-26T21:40:39.844Z,0
2017-06-26T21:42:56.095Z,0
2017-06-26T21:45:12.294Z,0
2017-06-26T21:47:28.506Z,0
2017-06-26T21:51:54.704Z,0
2017-06-26T21:54:19.439Z,0
2017-06-26T21:56:35.590Z,0
2017-06-26T21:58:51.834Z,0
2017-06-26T22:01:16.524Z,0
2017-06-26T22:03:26.725Z,0
2017-06-26T22:05:51.366Z,0
2017-06-26T22:08:15.961Z,0
2017-06-26T22:10:32.058Z,0
2017-06-26T22:12:56.649Z,0
2017-06-26T22:15:21.254Z,0
2017-06-26T22:17:45.838Z,0
2017-06-26T22:20:10.434Z,0
2017-06-26T22:22:35.030Z,0
2017-06-26T22:24:59.639Z,0
2017-06-26T22:27:24.320Z,0
2017-06-26T22:29:49.008Z,0
2017-06-26T22:32:13.613Z,0
2017-06-26T22:34:38.202Z,0
2017-06-26T22:37:02.808Z,0
2017-06-26T22:39:27.386Z,0
2017-06-26T22:41:43.483Z,0
2017-06-26T22:44:08.071Z,0
2017-06-26T22:46:32.698Z,0
2017-06-26T22:48:57.253Z,0
2017-06-26T22:51:21.858Z,0
2017-06-26T22:53:46.445Z,0
2017-06-26T22:57:47.024Z,0
2017-06-26T23:00:03.112Z,0
2017-06-26T23:02:27.675Z,0
2017-06-26T23:04:43.817Z,0
2017-06-26T23:07:08.359Z,0
2017-06-26T23:09:32.957Z,0
2017-06-26T23:13:59.051Z,0
2017-06-26T23:16:23.594Z,0
2017-06-26T23:20:49.682Z,0
2017-06-26T23:23:14.238Z,0
2017-06-26T23:25:38.714Z,0
2017-06-26T23:28:03.217Z,0
2017-06-26T23:30:27.705Z,0
2017-06-26T23:32:43.842Z,0
2017-06-26T23:35:08.399Z,0
2017-06-26T23:37:24.542Z,0
2017-06-26T23:39:49.084Z,0
2017-06-26T23:42:13.571Z,0
2017-06-26T23:44:38.165Z,0
2017-06-26T23:47:02.765Z,0
2017-06-26T23:49:27.360Z,0
2017-06-26T23:53:44.948Z,0
2017-06-26T23:56:09.502Z,0
2017-06-26T23:58:34.090Z,0
